createdAt,value
2024-02-07T00:00:17.547Z,3.13
2024-02-07T00:01:20.579Z,2.82
2024-02-07T00:02:23.920Z,2.80
2024-02-07T00:03:27.437Z,2.77
2024-02-07T00:04:30.338Z,2.78
2024-02-07T00:05:33.197Z,2.87
2024-02-07T00:06:35.984Z,2.97
2024-02-07T00:07:41.814Z,3.20
2024-02-07T00:08:44.820Z,3.02
2024-02-07T00:09:47.635Z,3.07
2024-02-07T00:10:50.502Z,2.90
2024-02-07T00:11:53.211Z,3.10
2024-02-07T00:12:56.048Z,3.27
2024-02-07T00:14:01.489Z,3.05
2024-02-07T00:15:05.905Z,3.07
2024-02-07T00:16:08.637Z,2.80
2024-02-07T00:17:11.392Z,2.92
2024-02-07T00:18:14.552Z,3.02
2024-02-07T00:19:17.401Z,3.10
2024-02-07T00:20:20.292Z,3.20
2024-02-07T00:21:23.052Z,2.83
2024-02-07T00:22:25.834Z,3.05
2024-02-07T00:23:28.571Z,3.45
2024-02-07T00:24:31.318Z,3.15
2024-02-07T00:25:35.538Z,3.00
2024-02-07T00:26:38.356Z,3.38
2024-02-07T00:27:41.117Z,3.00
2024-02-07T00:28:43.912Z,2.82
2024-02-07T00:29:48.364Z,3.35
2024-02-07T00:30:51.140Z,3.40
2024-02-07T00:31:53.920Z,3.55
2024-02-07T00:32:57.010Z,3.25
2024-02-07T00:33:59.831Z,2.82
2024-02-07T00:35:02.899Z,2.88
2024-02-07T00:36:06.048Z,2.88
2024-02-07T00:37:09.108Z,3.15
2024-02-07T00:38:11.932Z,2.82
2024-02-07T00:39:14.867Z,2.93
2024-02-07T00:40:18.185Z,3.25
2024-02-07T00:41:25.518Z,3.23
2024-02-07T00:42:28.307Z,3.38
2024-02-07T00:43:33.759Z,3.03
2024-02-07T00:44:37.969Z,2.87
2024-02-07T00:45:40.659Z,3.15
2024-02-07T00:46:44.516Z,3.32
2024-02-07T00:47:47.899Z,3.15
2024-02-07T00:48:50.739Z,3.12
2024-02-07T00:49:53.592Z,3.03
2024-02-07T00:50:56.406Z,3.33
2024-02-07T00:51:59.263Z,3.05
2024-02-07T00:53:02.013Z,3.08
2024-02-07T00:54:04.773Z,3.00
2024-02-07T00:55:08.075Z,3.05
2024-02-07T00:56:13.081Z,3.02
2024-02-07T00:57:15.800Z,3.17
2024-02-07T00:58:19.097Z,3.22
2024-02-07T00:59:21.844Z,3.05
2024-02-07T01:00:25.349Z,2.95
2024-02-07T01:01:28.518Z,2.77
2024-02-07T01:02:31.481Z,3.07
2024-02-07T01:03:34.218Z,3.03
2024-02-07T01:04:37.727Z,2.97
2024-02-07T01:05:40.509Z,3.20
2024-02-07T01:06:43.277Z,3.18
2024-02-07T01:07:46.045Z,3.25
2024-02-07T01:08:49.828Z,3.35
2024-02-07T01:09:52.478Z,3.07
2024-02-07T01:10:55.255Z,2.95
2024-02-07T01:11:58.213Z,2.88
2024-02-07T01:13:00.899Z,2.97
2024-02-07T01:14:03.701Z,3.08
2024-02-07T01:15:08.130Z,3.17
2024-02-07T01:16:11.021Z,3.07
2024-02-07T01:17:15.474Z,3.07
2024-02-07T01:18:18.433Z,2.85
2024-02-07T01:19:22.421Z,2.78
2024-02-07T01:20:25.375Z,3.43
2024-02-07T01:21:28.503Z,3.50
2024-02-07T01:22:31.257Z,3.08
2024-02-07T01:23:34.015Z,3.25
2024-02-07T01:24:36.732Z,3.02
2024-02-07T01:25:42.182Z,2.90
2024-02-07T01:26:48.549Z,2.83
2024-02-07T01:27:51.309Z,3.27
2024-02-07T01:28:54.036Z,3.03
2024-02-07T01:29:57.324Z,3.10
2024-02-07T01:31:00.050Z,3.03
2024-02-07T01:32:02.752Z,3.25
2024-02-07T01:33:07.932Z,3.08
2024-02-07T01:34:11.116Z,2.83
2024-02-07T01:35:17.845Z,3.37
2024-02-07T01:36:22.310Z,2.98
2024-02-07T01:37:25.069Z,3.33
2024-02-07T01:38:27.920Z,3.30
2024-02-07T01:39:30.733Z,3.22
2024-02-07T01:40:43.815Z,3.17
2024-02-07T01:41:59.794Z,2.72
2024-02-07T01:43:04.553Z,3.22
2024-02-07T01:44:07.396Z,3.38
2024-02-07T01:45:23.425Z,3.32
2024-02-07T01:46:29.019Z,3.37
2024-02-07T01:47:31.885Z,3.57
2024-02-07T01:48:35.068Z,3.18
2024-02-07T01:49:39.177Z,3.25
2024-02-07T01:50:42.322Z,3.50
2024-02-07T01:51:49.799Z,3.52
2024-02-07T01:52:56.886Z,3.18
2024-02-07T01:53:59.882Z,3.22
2024-02-07T01:55:04.997Z,3.30
2024-02-07T01:56:09.271Z,3.35
2024-02-07T01:57:13.056Z,3.00
2024-02-07T01:58:17.390Z,3.05
2024-02-07T01:59:21.276Z,2.58
2024-02-07T02:00:25.676Z,2.93
2024-02-07T02:01:29.418Z,3.28
2024-02-07T02:02:32.277Z,3.05
2024-02-07T02:03:35.319Z,2.77
2024-02-07T02:04:38.757Z,3.17
2024-02-07T02:05:42.200Z,3.02
2024-02-07T02:06:45.023Z,3.15
2024-02-07T02:07:48.705Z,2.90
2024-02-07T02:08:51.649Z,2.57
2024-02-07T02:09:54.412Z,3.10
2024-02-07T02:11:04.451Z,2.85
2024-02-07T02:12:09.204Z,2.88
2024-02-07T02:13:12.283Z,2.70
2024-02-07T02:14:15.631Z,2.93
2024-02-07T02:15:19.460Z,2.88
2024-02-07T02:16:22.263Z,3.10
2024-02-07T02:17:25.081Z,2.87
2024-02-07T02:18:27.888Z,2.90
2024-02-07T02:19:30.914Z,2.62
2024-02-07T02:20:34.105Z,2.75
2024-02-07T02:22:02.158Z,2.87
2024-02-07T02:23:13.391Z,2.68
2024-02-07T02:24:36.064Z,3.28
2024-02-07T02:26:13.114Z,3.13
2024-02-07T02:27:18.635Z,3.07
2024-02-07T02:28:40.259Z,2.98
2024-02-07T02:29:54.819Z,2.85
2024-02-07T02:31:00.846Z,2.80
2024-02-07T02:32:07.524Z,3.08
2024-02-07T02:33:14.037Z,2.87
2024-02-07T02:34:18.825Z,3.18
2024-02-07T02:35:23.868Z,3.05
2024-02-07T02:36:27.886Z,3.17
2024-02-07T02:37:30.757Z,3.32
2024-02-07T02:38:37.756Z,2.90
2024-02-07T02:39:40.730Z,3.15
2024-02-07T02:40:44.583Z,2.92
2024-02-07T02:41:47.655Z,3.18
2024-02-07T02:42:50.394Z,3.08
2024-02-07T02:43:53.796Z,3.33
2024-02-07T02:44:56.625Z,3.40
2024-02-07T02:45:59.359Z,3.18
2024-02-07T02:47:04.070Z,3.55
2024-02-07T02:48:08.711Z,3.20
2024-02-07T02:49:12.738Z,3.33
2024-02-07T02:50:17.383Z,3.68
2024-02-07T02:51:21.593Z,3.43
2024-02-07T02:52:28.642Z,3.43
2024-02-07T02:53:34.427Z,3.15
2024-02-07T02:54:37.823Z,3.28
2024-02-07T02:55:41.143Z,3.03
2024-02-07T02:56:43.902Z,3.37
2024-02-07T02:57:48.198Z,3.30
2024-02-07T02:58:52.889Z,3.27
2024-02-07T02:59:55.943Z,2.93
2024-02-07T03:00:58.907Z,3.27
2024-02-07T03:02:09.778Z,3.55
2024-02-07T03:03:12.860Z,3.28
2024-02-07T03:04:17.378Z,3.32
2024-02-07T03:05:40.039Z,2.90
2024-02-07T03:07:00.237Z,3.02
2024-02-07T03:08:22.820Z,2.98
2024-02-07T03:09:29.401Z,3.12
2024-02-07T03:10:35.886Z,3.33
2024-02-07T03:11:38.596Z,3.17
2024-02-07T03:12:42.766Z,2.98
2024-02-07T03:13:45.482Z,2.95
2024-02-07T03:14:51.247Z,3.25
2024-02-07T03:15:53.974Z,2.85
2024-02-07T03:16:56.765Z,3.17
2024-02-07T03:17:59.565Z,3.05
2024-02-07T03:19:02.574Z,3.00
2024-02-07T03:20:08.913Z,3.20
2024-02-07T03:21:11.861Z,3.13
2024-02-07T03:22:14.681Z,2.85
2024-02-07T03:23:17.589Z,2.97
2024-02-07T03:24:20.359Z,3.02
2024-02-07T03:25:23.137Z,3.23
2024-02-07T03:26:25.871Z,3.12
2024-02-07T03:27:29.004Z,3.12
2024-02-07T03:28:34.533Z,2.97
2024-02-07T03:29:37.395Z,3.18
2024-02-07T03:30:40.119Z,2.98
2024-02-07T03:31:45.563Z,2.92
2024-02-07T03:32:48.965Z,3.35
2024-02-07T03:33:51.825Z,2.88
2024-02-07T03:34:54.847Z,2.87
2024-02-07T03:35:57.603Z,2.97
2024-02-07T03:37:00.316Z,3.07
2024-02-07T03:38:04.026Z,2.98
2024-02-07T03:39:11.018Z,3.17
2024-02-07T03:40:15.294Z,3.15
2024-02-07T03:41:18.192Z,3.22
2024-02-07T03:42:22.600Z,2.88
2024-02-07T03:43:25.398Z,3.05
2024-02-07T03:44:29.057Z,3.25
2024-02-07T03:45:34.487Z,3.15
2024-02-07T03:46:37.203Z,3.20
2024-02-07T03:47:41.065Z,3.33
2024-02-07T03:48:43.836Z,3.43
2024-02-07T03:49:48.173Z,3.27
2024-02-07T03:50:50.857Z,3.03
2024-02-07T03:51:53.780Z,3.12
2024-02-07T03:52:56.668Z,3.15
2024-02-07T03:54:00.478Z,3.30
2024-02-07T03:55:07.820Z,3.23
2024-02-07T03:56:14.343Z,3.02
2024-02-07T03:57:20.399Z,3.12
2024-02-07T03:58:25.610Z,3.77
2024-02-07T03:59:29.594Z,3.40
2024-02-07T04:00:32.408Z,3.50
2024-02-07T04:01:35.324Z,3.25
2024-02-07T04:02:39.140Z,3.37
2024-02-07T04:03:41.987Z,3.10
2024-02-07T04:04:45.419Z,3.32
2024-02-07T04:05:48.286Z,3.53
2024-02-07T04:06:53.026Z,3.27
2024-02-07T04:07:56.076Z,3.07
2024-02-07T04:08:59.008Z,3.32
2024-02-07T04:10:02.772Z,3.43
2024-02-07T04:11:08.848Z,3.22
2024-02-07T04:12:16.248Z,3.47
2024-02-07T04:13:19.664Z,3.23
2024-02-07T04:14:22.401Z,3.45
2024-02-07T04:15:43.594Z,3.32
2024-02-07T04:17:07.997Z,3.52
2024-02-07T04:18:31.211Z,3.65
2024-02-07T04:19:52.442Z,3.48
2024-02-07T04:21:13.747Z,3.32
2024-02-07T04:22:38.008Z,3.27
2024-02-07T04:23:59.238Z,3.73
2024-02-07T04:25:20.863Z,3.30
2024-02-07T04:26:48.422Z,3.40
2024-02-07T04:28:09.746Z,3.28
2024-02-07T04:29:34.330Z,3.27
2024-02-07T04:30:57.706Z,3.43
2024-02-07T04:32:19.212Z,3.43
2024-02-07T04:33:43.488Z,3.53
2024-02-07T04:35:05.632Z,3.55
2024-02-07T04:36:27.229Z,3.78
2024-02-07T04:37:48.534Z,3.72
2024-02-07T04:39:12.643Z,3.67
2024-02-07T04:40:33.794Z,3.53
2024-02-07T04:41:55.044Z,3.88
2024-02-07T04:43:16.272Z,3.52
2024-02-07T04:44:37.442Z,3.85
2024-02-07T04:45:58.737Z,4.15
2024-02-07T04:47:22.942Z,3.53
2024-02-07T04:48:44.144Z,4.15
2024-02-07T04:50:05.432Z,4.82
2024-02-07T04:51:27.232Z,4.23
2024-02-07T04:52:49.023Z,4.13
2024-02-07T04:54:12.429Z,4.15
2024-02-07T04:55:34.173Z,4.58
2024-02-07T04:56:55.537Z,4.62
2024-02-07T04:58:16.727Z,4.33
2024-02-07T04:59:38.025Z,4.48
2024-02-07T05:00:59.277Z,4.27
2024-02-07T05:02:20.410Z,4.12
2024-02-07T05:03:41.843Z,4.07
2024-02-07T05:05:03.468Z,4.42
2024-02-07T05:06:26.237Z,4.53
2024-02-07T05:07:47.649Z,4.20
2024-02-07T05:09:09.020Z,4.33
2024-02-07T05:10:30.310Z,4.50
2024-02-07T05:11:51.628Z,4.70
2024-02-07T05:13:12.838Z,4.38
2024-02-07T05:14:34.052Z,4.08
2024-02-07T05:15:36.825Z,4.57
2024-02-07T05:16:40.778Z,4.37
2024-02-07T05:17:43.496Z,4.38
2024-02-07T05:18:46.240Z,4.52
2024-02-07T05:19:50.171Z,4.55
2024-02-07T05:20:52.917Z,4.22
2024-02-07T05:21:56.249Z,4.05
2024-02-07T05:22:58.985Z,4.53
2024-02-07T05:24:01.761Z,4.18
2024-02-07T05:25:05.818Z,3.97
2024-02-07T05:26:09.796Z,4.35
2024-02-07T05:27:13.830Z,4.23
2024-02-07T05:28:16.833Z,4.05
2024-02-07T05:29:20.055Z,4.38
2024-02-07T05:30:22.767Z,4.52
2024-02-07T05:31:25.493Z,4.58
2024-02-07T05:32:28.487Z,4.55
2024-02-07T05:33:32.892Z,4.12
2024-02-07T05:34:36.819Z,4.18
2024-02-07T05:35:39.699Z,4.75
2024-02-07T05:36:42.469Z,4.35
2024-02-07T05:37:45.250Z,3.87
2024-02-07T05:38:48.116Z,4.30
2024-02-07T05:39:50.889Z,4.28
2024-02-07T05:40:53.699Z,4.13
2024-02-07T05:41:56.473Z,4.33
2024-02-07T05:43:00.681Z,4.30
2024-02-07T05:44:03.475Z,4.48
2024-02-07T05:45:06.507Z,4.37
2024-02-07T05:46:09.437Z,4.52
2024-02-07T05:47:12.275Z,4.60
2024-02-07T05:48:15.161Z,4.62
2024-02-07T05:49:18.044Z,4.73
2024-02-07T05:50:20.876Z,4.90
2024-02-07T05:51:27.744Z,5.03
2024-02-07T05:52:30.691Z,5.47
2024-02-07T05:53:33.429Z,6.15
2024-02-07T05:54:38.992Z,9.58
2024-02-07T05:55:44.339Z,9.45
2024-02-07T05:56:47.265Z,9.40
2024-02-07T05:57:49.920Z,9.30
2024-02-07T05:58:52.849Z,9.87
2024-02-07T05:59:55.786Z,9.30
2024-02-07T06:00:58.585Z,10.88
2024-02-07T06:02:03.368Z,12.37
2024-02-07T06:03:07.298Z,12.88
2024-02-07T06:04:10.478Z,12.62
2024-02-07T06:05:13.385Z,13.28
2024-02-07T06:06:16.217Z,13.78
2024-02-07T06:07:19.152Z,13.47
2024-02-07T06:08:23.940Z,12.82
2024-02-07T06:09:26.722Z,11.82
2024-02-07T06:10:31.314Z,13.03
2024-02-07T06:11:35.644Z,13.12
2024-02-07T06:12:40.734Z,12.80
2024-02-07T06:13:43.517Z,13.17
2024-02-07T06:14:46.283Z,12.78
2024-02-07T06:15:48.967Z,11.58
2024-02-07T06:16:51.733Z,11.87
2024-02-07T06:17:54.824Z,11.18
2024-02-07T06:18:59.912Z,10.03
2024-02-07T06:20:02.922Z,10.30
2024-02-07T06:21:05.847Z,10.43
2024-02-07T06:22:08.673Z,10.88
2024-02-07T06:23:11.372Z,10.80
2024-02-07T06:24:14.132Z,11.48
2024-02-07T06:25:17.421Z,11.38
2024-02-07T06:26:20.361Z,11.08
2024-02-07T06:27:23.186Z,11.90
2024-02-07T06:28:26.242Z,11.07
2024-02-07T06:29:29.281Z,11.18
2024-02-07T06:30:32.038Z,11.53
2024-02-07T06:31:34.912Z,11.53
2024-02-07T06:32:38.782Z,12.35
2024-02-07T06:33:41.843Z,12.37
2024-02-07T06:34:44.760Z,14.38
2024-02-07T06:35:47.564Z,14.50
2024-02-07T06:36:50.295Z,14.15
2024-02-07T06:37:53.259Z,14.15
2024-02-07T06:38:59.203Z,14.83
2024-02-07T06:40:02.139Z,14.95
2024-02-07T06:41:05.081Z,15.48
2024-02-07T06:42:07.898Z,15.28
2024-02-07T06:43:10.704Z,14.28
2024-02-07T06:44:13.409Z,14.63
2024-02-07T06:45:16.189Z,15.97
2024-02-07T06:46:18.970Z,15.32
2024-02-07T06:47:21.755Z,15.17
2024-02-07T06:48:24.941Z,14.37
2024-02-07T06:49:27.710Z,14.13
2024-02-07T06:50:30.528Z,13.03
2024-02-07T06:51:33.190Z,13.85
2024-02-07T06:52:35.944Z,13.15
2024-02-07T06:53:41.294Z,12.10
2024-02-07T06:54:44.254Z,11.57
2024-02-07T06:55:47.011Z,12.03
2024-02-07T06:56:49.809Z,11.77
2024-02-07T06:57:52.538Z,11.55
2024-02-07T06:58:55.368Z,11.15
2024-02-07T06:59:58.310Z,11.17
2024-02-07T07:01:01.333Z,12.02
2024-02-07T07:02:04.452Z,11.52
2024-02-07T07:03:07.427Z,11.23
2024-02-07T07:04:10.415Z,11.33
2024-02-07T07:05:13.311Z,10.85
2024-02-07T07:06:16.295Z,11.33
2024-02-07T07:07:19.129Z,10.73
2024-02-07T07:08:21.976Z,10.78
2024-02-07T07:09:24.728Z,11.20
2024-02-07T07:10:28.231Z,11.65
2024-02-07T07:11:31.008Z,11.23
2024-02-07T07:12:33.882Z,11.63
2024-02-07T07:13:36.747Z,11.37
2024-02-07T07:14:44.380Z,11.63
2024-02-07T07:15:47.205Z,11.77
2024-02-07T07:16:49.946Z,11.85
2024-02-07T07:17:52.718Z,12.47
2024-02-07T07:18:57.929Z,12.58
2024-02-07T07:20:00.861Z,12.95
2024-02-07T07:21:03.736Z,13.27
2024-02-07T07:22:06.399Z,13.07
2024-02-07T07:23:15.710Z,13.27
2024-02-07T07:24:19.525Z,13.32
2024-02-07T07:25:22.366Z,14.20
2024-02-07T07:26:25.269Z,14.80
2024-02-07T07:27:28.016Z,15.63
2024-02-07T07:28:30.820Z,14.93
2024-02-07T07:29:33.609Z,16.07
2024-02-07T07:30:36.651Z,16.20
2024-02-07T07:31:39.614Z,16.62
2024-02-07T07:32:43.423Z,17.53
2024-02-07T07:33:46.211Z,18.02
2024-02-07T07:34:49.021Z,17.52
2024-02-07T07:35:51.932Z,18.22
2024-02-07T07:36:54.801Z,18.70
2024-02-07T07:38:04.674Z,18.10
2024-02-07T07:39:07.477Z,17.90
2024-02-07T07:40:10.704Z,18.97
2024-02-07T07:41:15.585Z,19.50
2024-02-07T07:42:18.489Z,18.83
2024-02-07T07:43:21.757Z,19.40
2024-02-07T07:44:26.317Z,19.57
2024-02-07T07:45:29.292Z,19.43
2024-02-07T07:46:32.294Z,19.12
2024-02-07T07:47:35.178Z,19.22
2024-02-07T07:48:38.301Z,20.02
2024-02-07T07:49:42.753Z,19.32
2024-02-07T07:50:45.584Z,21.30
2024-02-07T07:51:48.340Z,20.87
2024-02-07T07:52:51.341Z,20.03
2024-02-07T07:53:55.974Z,20.42
2024-02-07T07:54:58.828Z,21.52
2024-02-07T07:56:01.693Z,21.20
2024-02-07T07:57:06.473Z,22.70
2024-02-07T07:58:09.228Z,23.68
2024-02-07T07:59:14.406Z,21.58
2024-02-07T08:00:17.723Z,22.82
2024-02-07T08:01:22.788Z,22.37
2024-02-07T08:02:28.063Z,22.23
2024-02-07T08:03:31.002Z,23.42
2024-02-07T08:04:37.312Z,23.80
2024-02-07T08:05:43.217Z,24.57
2024-02-07T08:06:48.702Z,23.75
2024-02-07T08:07:51.806Z,25.20
2024-02-07T08:08:56.530Z,25.37
2024-02-07T08:09:59.259Z,24.95
2024-02-07T08:11:03.119Z,25.37
2024-02-07T08:12:06.319Z,26.05
2024-02-07T08:13:09.070Z,25.50
2024-02-07T08:14:12.363Z,25.72
2024-02-07T08:15:18.146Z,25.68
2024-02-07T08:16:21.213Z,26.13
2024-02-07T08:17:24.243Z,25.87
2024-02-07T08:18:28.559Z,25.87
2024-02-07T08:19:31.510Z,25.40
2024-02-07T08:20:34.529Z,26.07
2024-02-07T08:21:37.347Z,26.62
2024-02-07T08:22:40.350Z,26.87
2024-02-07T08:23:43.260Z,27.80
2024-02-07T08:24:45.982Z,27.78
2024-02-07T08:25:51.536Z,27.58
2024-02-07T08:26:54.470Z,27.42
2024-02-07T08:27:57.374Z,28.87
2024-02-07T08:29:00.254Z,29.20
2024-02-07T08:30:03.160Z,29.33
2024-02-07T08:31:06.528Z,29.32
2024-02-07T08:32:09.340Z,30.50
2024-02-07T08:33:13.217Z,30.92
2024-02-07T08:34:18.808Z,31.17
2024-02-07T08:35:21.919Z,30.83
2024-02-07T08:36:24.964Z,31.47
2024-02-07T08:37:31.392Z,32.17
2024-02-07T08:38:34.139Z,35.00
2024-02-07T08:39:36.972Z,35.32
2024-02-07T08:40:39.834Z,35.75
2024-02-07T08:41:45.690Z,35.12
2024-02-07T08:42:48.634Z,34.97
2024-02-07T08:43:52.500Z,34.28
2024-02-07T08:44:55.546Z,35.12
2024-02-07T08:45:58.358Z,34.68
2024-02-07T08:47:01.297Z,34.52
2024-02-07T08:48:04.509Z,34.92
2024-02-07T08:49:07.771Z,35.13
2024-02-07T08:50:10.935Z,34.93
2024-02-07T08:51:13.776Z,35.32
2024-02-07T08:52:17.416Z,35.72
2024-02-07T08:53:21.585Z,36.02
2024-02-07T08:54:24.737Z,35.87
2024-02-07T08:55:27.540Z,35.53
2024-02-07T08:56:32.727Z,35.63
2024-02-07T08:57:40.823Z,35.23
2024-02-07T08:58:43.930Z,36.45
2024-02-07T08:59:46.874Z,36.88
2024-02-07T09:00:51.337Z,36.08
2024-02-07T09:01:54.105Z,36.75
2024-02-07T09:02:57.588Z,37.82
2024-02-07T09:04:00.404Z,36.47
2024-02-07T09:05:06.214Z,35.92
2024-02-07T09:06:11.678Z,35.45
2024-02-07T09:07:20.418Z,35.48
2024-02-07T09:08:25.381Z,35.97
2024-02-07T09:09:28.216Z,35.15
2024-02-07T09:10:31.872Z,36.75
2024-02-07T09:11:34.765Z,36.80
2024-02-07T09:12:37.543Z,35.87
2024-02-07T09:13:41.612Z,36.23
2024-02-07T09:14:45.395Z,35.48
2024-02-07T09:15:48.210Z,35.75
2024-02-07T09:16:51.192Z,35.40
2024-02-07T09:17:54.099Z,34.93
2024-02-07T09:18:56.901Z,34.13
2024-02-07T09:20:02.264Z,34.73
2024-02-07T09:21:05.352Z,33.92
2024-02-07T09:22:08.284Z,34.70
2024-02-07T09:23:13.264Z,34.07
2024-02-07T09:24:16.036Z,35.43
2024-02-07T09:25:18.881Z,35.65
2024-02-07T09:26:21.704Z,35.10
2024-02-07T09:27:24.523Z,35.33
2024-02-07T09:28:27.404Z,35.75
2024-02-07T09:29:31.897Z,35.60
2024-02-07T09:30:35.790Z,35.77
2024-02-07T09:31:38.620Z,36.22
2024-02-07T09:32:45.264Z,37.77
2024-02-07T09:33:48.133Z,37.37
2024-02-07T09:34:51.314Z,36.77
2024-02-07T09:35:54.250Z,35.52
2024-02-07T09:36:57.005Z,36.42
2024-02-07T09:37:59.795Z,35.07
2024-02-07T09:39:02.610Z,34.84
2024-02-07T09:40:06.209Z,34.90
2024-02-07T09:41:10.041Z,31.78
2024-02-07T09:42:19.008Z,29.43
2024-02-07T09:43:24.182Z,25.98
2024-02-07T09:44:30.297Z,23.18
2024-02-07T09:45:37.874Z,22.82
2024-02-07T09:46:45.631Z,23.37
2024-02-07T09:48:05.440Z,23.08
2024-02-07T09:49:15.733Z,23.00
2024-02-07T09:50:21.039Z,21.82
2024-02-07T09:51:26.209Z,21.98
2024-02-07T09:52:31.065Z,22.38
2024-02-07T09:53:36.892Z,21.87
2024-02-07T09:54:40.233Z,22.13
2024-02-07T09:55:43.852Z,23.28
2024-02-07T09:56:47.680Z,25.28
2024-02-07T09:57:53.150Z,26.58
2024-02-07T09:58:56.588Z,27.92
2024-02-07T09:59:59.336Z,27.28
2024-02-07T10:01:02.160Z,27.95
2024-02-07T10:02:06.830Z,28.40
2024-02-07T10:03:15.055Z,28.95
2024-02-07T10:04:30.994Z,29.13
2024-02-07T10:05:37.292Z,29.58
2024-02-07T10:06:40.660Z,30.63
2024-02-07T10:07:44.434Z,31.67
2024-02-07T10:08:51.962Z,32.10
2024-02-07T10:09:59.141Z,32.93
2024-02-07T10:11:03.970Z,31.53
2024-02-07T10:12:12.195Z,32.20
2024-02-07T10:13:16.997Z,32.47
2024-02-07T10:14:20.452Z,33.33
2024-02-07T10:15:28.874Z,32.80
2024-02-07T10:16:31.657Z,31.67
2024-02-07T10:17:34.523Z,32.30
2024-02-07T10:18:37.473Z,31.30
2024-02-07T10:19:41.210Z,30.80
2024-02-07T10:20:54.589Z,30.72
2024-02-07T10:21:57.375Z,31.30
2024-02-07T10:23:00.271Z,30.67
2024-02-07T10:24:08.132Z,30.82
2024-02-07T10:25:29.650Z,31.48
2024-02-07T10:26:32.723Z,31.87
2024-02-07T10:27:35.453Z,30.28
2024-02-07T10:28:38.629Z,29.87
2024-02-07T10:29:46.241Z,29.20
2024-02-07T10:30:59.142Z,28.77
2024-02-07T10:32:02.565Z,30.12
2024-02-07T10:33:06.451Z,29.12
2024-02-07T10:34:23.052Z,28.95
2024-02-07T10:35:26.693Z,29.45
2024-02-07T10:36:29.670Z,29.87
2024-02-07T10:37:42.431Z,29.35
2024-02-07T10:38:45.312Z,29.32
2024-02-07T10:39:49.743Z,29.87
2024-02-07T10:40:55.341Z,30.17
2024-02-07T10:42:01.276Z,29.30
2024-02-07T10:43:06.794Z,28.63
2024-02-07T10:44:10.972Z,30.20
2024-02-07T10:45:16.648Z,29.17
2024-02-07T10:46:19.857Z,29.35
2024-02-07T10:47:24.744Z,22.37
2024-02-07T10:48:30.503Z,11.30
2024-02-07T10:49:33.766Z,7.72
2024-02-07T10:50:38.177Z,6.43
2024-02-07T10:51:42.207Z,6.47
2024-02-07T10:52:45.339Z,7.77
2024-02-07T10:53:48.322Z,9.30
2024-02-07T10:54:53.359Z,11.27
2024-02-07T10:56:00.904Z,10.52
2024-02-07T10:57:05.251Z,9.55
2024-02-07T10:58:12.900Z,7.28
2024-02-07T10:59:16.766Z,6.68
2024-02-07T11:00:20.516Z,6.43
2024-02-07T11:01:24.077Z,6.13
2024-02-07T11:02:28.629Z,5.78
2024-02-07T11:03:32.504Z,6.28
2024-02-07T11:04:38.230Z,5.98
2024-02-07T11:05:41.916Z,6.05
2024-02-07T11:06:45.606Z,5.97
2024-02-07T11:07:49.963Z,5.50
2024-02-07T11:09:01.981Z,5.67
2024-02-07T11:10:09.499Z,5.62
2024-02-07T11:11:13.167Z,5.80
2024-02-07T11:12:16.740Z,5.87
2024-02-07T11:13:20.291Z,5.93
2024-02-07T11:14:23.595Z,5.77
2024-02-07T11:15:26.447Z,6.37
2024-02-07T11:16:29.348Z,5.72
2024-02-07T11:17:32.120Z,6.02
2024-02-07T11:18:35.047Z,5.77
2024-02-07T11:19:38.698Z,6.23
2024-02-07T11:20:50.361Z,6.50
2024-02-07T11:21:53.814Z,6.15
2024-02-07T11:23:04.388Z,6.43
2024-02-07T11:24:08.841Z,6.57
2024-02-07T11:25:16.165Z,6.32
2024-02-07T11:26:19.710Z,6.73
2024-02-07T11:27:23.850Z,7.47
2024-02-07T11:28:26.883Z,7.30
2024-02-07T11:29:33.772Z,7.83
2024-02-07T11:30:37.061Z,7.45
2024-02-07T11:31:42.037Z,7.60
2024-02-07T11:32:49.398Z,7.40
2024-02-07T11:33:54.680Z,7.62
2024-02-07T11:35:00.940Z,7.82
2024-02-07T11:36:16.453Z,8.07
2024-02-07T11:37:19.862Z,7.63
2024-02-07T11:38:22.726Z,7.77
2024-02-07T11:39:25.539Z,7.85
2024-02-07T11:40:40.938Z,7.83
2024-02-07T11:41:47.734Z,7.75
2024-02-07T11:42:50.631Z,7.18
2024-02-07T11:43:56.774Z,7.18
2024-02-07T11:45:01.457Z,7.37
2024-02-07T11:46:08.177Z,7.82
2024-02-07T11:47:11.055Z,8.33
2024-02-07T11:48:19.511Z,8.05
2024-02-07T11:49:29.360Z,8.13
2024-02-07T11:50:38.801Z,8.75
2024-02-07T11:51:41.622Z,10.13
2024-02-07T11:52:51.273Z,9.82
2024-02-07T11:54:07.066Z,9.85
2024-02-07T11:55:12.020Z,9.07
2024-02-07T11:56:22.159Z,8.60
2024-02-07T11:57:25.008Z,8.00
2024-02-07T11:58:27.788Z,7.27
2024-02-07T11:59:30.839Z,7.32
2024-02-07T12:00:34.261Z,7.60
2024-02-07T12:01:37.125Z,7.87
2024-02-07T12:02:46.069Z,8.02
2024-02-07T12:03:56.687Z,8.25
2024-02-07T12:04:59.973Z,7.83
2024-02-07T12:06:03.298Z,8.22
2024-02-07T12:07:10.546Z,8.97
2024-02-07T12:08:16.293Z,8.18
2024-02-07T12:09:19.779Z,8.02
2024-02-07T12:10:22.736Z,7.88
2024-02-07T12:11:25.633Z,7.87
2024-02-07T12:12:28.585Z,8.10
2024-02-07T12:13:33.551Z,8.20
2024-02-07T12:14:36.334Z,8.17
2024-02-07T12:15:39.196Z,8.22
2024-02-07T12:16:41.932Z,8.50
2024-02-07T12:17:45.022Z,8.97
2024-02-07T12:18:48.700Z,9.05
2024-02-07T12:19:53.117Z,8.53
2024-02-07T12:21:06.200Z,8.83
2024-02-07T12:22:09.195Z,9.32
2024-02-07T12:23:12.226Z,10.25
2024-02-07T12:24:16.000Z,9.82
2024-02-07T12:25:19.191Z,10.73
2024-02-07T12:26:26.700Z,10.67
2024-02-07T12:27:29.896Z,10.83
2024-02-07T12:28:33.373Z,11.13
2024-02-07T12:29:36.576Z,10.32
2024-02-07T12:30:39.882Z,10.50
2024-02-07T12:31:43.061Z,10.70
2024-02-07T12:32:46.351Z,10.53
2024-02-07T12:33:49.422Z,11.53
2024-02-07T12:34:57.068Z,10.28
2024-02-07T12:36:01.055Z,10.97
2024-02-07T12:37:04.046Z,10.50
2024-02-07T12:38:08.058Z,10.72
2024-02-07T12:39:11.144Z,10.70
2024-02-07T12:40:15.445Z,10.88
2024-02-07T12:41:18.934Z,10.17
2024-02-07T12:42:26.977Z,10.00
2024-02-07T12:43:30.246Z,10.40
2024-02-07T12:44:34.353Z,10.23
2024-02-07T12:45:37.584Z,10.53
2024-02-07T12:46:40.342Z,10.75
2024-02-07T12:47:45.049Z,10.88
2024-02-07T12:48:48.062Z,10.55
2024-02-07T12:49:52.436Z,10.28
2024-02-07T12:50:56.342Z,10.33
2024-02-07T12:52:00.363Z,10.72
2024-02-07T12:53:04.252Z,10.93
2024-02-07T12:54:09.279Z,11.82
2024-02-07T12:55:13.055Z,11.52
2024-02-07T12:56:19.983Z,10.50
2024-02-07T12:57:24.649Z,10.88
2024-02-07T12:58:27.883Z,11.40
2024-02-07T12:59:36.374Z,11.32
2024-02-07T13:00:40.403Z,12.02
2024-02-07T13:01:44.335Z,12.03
2024-02-07T13:02:48.541Z,12.42
2024-02-07T13:03:52.356Z,12.60
2024-02-07T13:04:55.993Z,13.18
2024-02-07T13:06:01.953Z,13.35
2024-02-07T13:07:06.483Z,14.12
2024-02-07T13:08:12.754Z,15.90
2024-02-07T13:09:16.754Z,17.08
2024-02-07T13:10:19.846Z,18.63
2024-02-07T13:11:22.749Z,18.92
2024-02-07T13:12:30.359Z,19.80
2024-02-07T13:13:33.782Z,20.43
2024-02-07T13:14:39.791Z,21.95
2024-02-07T13:15:42.730Z,22.10
2024-02-07T13:16:46.858Z,21.78
2024-02-07T13:17:50.659Z,21.38
2024-02-07T13:18:54.731Z,22.28
2024-02-07T13:19:57.617Z,21.63
2024-02-07T13:21:06.659Z,21.37
2024-02-07T13:22:16.157Z,21.30
2024-02-07T13:23:34.518Z,21.07
2024-02-07T13:24:37.838Z,21.02
2024-02-07T13:25:40.736Z,21.13
2024-02-07T13:26:45.090Z,21.25
2024-02-07T13:27:50.737Z,21.63
2024-02-07T13:28:53.839Z,21.07
2024-02-07T13:29:57.118Z,20.43
2024-02-07T13:31:04.321Z,19.88
2024-02-07T13:32:11.743Z,19.68
2024-02-07T13:33:18.755Z,19.18
2024-02-07T13:34:21.839Z,20.23
2024-02-07T13:35:27.491Z,18.67
2024-02-07T13:36:33.942Z,20.65
2024-02-07T13:37:36.753Z,20.13
2024-02-07T13:38:39.883Z,19.22
2024-02-07T13:39:43.420Z,19.73
2024-02-07T13:40:47.078Z,19.27
2024-02-07T13:41:49.922Z,18.07
2024-02-07T13:42:53.972Z,19.50
2024-02-07T13:43:58.047Z,19.33
2024-02-07T13:45:01.070Z,18.57
2024-02-07T13:46:04.417Z,17.87
2024-02-07T13:47:09.044Z,17.33
2024-02-07T13:48:11.955Z,17.02
2024-02-07T13:49:15.481Z,17.32
2024-02-07T13:50:18.624Z,16.83
2024-02-07T13:51:25.396Z,16.98
2024-02-07T13:52:28.355Z,16.35
2024-02-07T13:53:31.414Z,15.92
2024-02-07T13:54:34.895Z,15.80
2024-02-07T13:55:37.791Z,15.27
2024-02-07T13:56:40.615Z,14.22
2024-02-07T13:57:43.379Z,13.05
2024-02-07T13:58:47.041Z,12.82
2024-02-07T13:59:50.091Z,12.55
2024-02-07T14:00:53.618Z,12.88
2024-02-07T14:01:56.467Z,12.43
2024-02-07T14:02:59.340Z,12.83
2024-02-07T14:04:05.563Z,13.68
2024-02-07T14:05:12.937Z,14.12
2024-02-07T14:06:18.750Z,14.35
2024-02-07T14:07:22.888Z,13.85
2024-02-07T14:08:25.967Z,14.15
2024-02-07T14:09:29.313Z,14.42
2024-02-07T14:10:35.343Z,14.62
2024-02-07T14:11:42.382Z,15.12
2024-02-07T14:12:45.661Z,15.03
2024-02-07T14:13:48.561Z,14.60
2024-02-07T14:14:51.274Z,14.90
2024-02-07T14:15:54.025Z,15.78